Concepcion de la Sierra, Argentina
Current Conditions -  °F | °C
As of 10:00 AM on Thursday 23 Oct 2014 (Local Time) from SARP Reporting Station
Clear Clear  
Wind Chill: 82°   Ceiling: Unl
Heat Index: 82°   Visibility: 6mi
Dew Point: 59°   Wind: 5mph
Humidity: 45%   Direction: 50°NE
Pressure: 30.03"   Gusts: NA
Location:  27.98°S, 55.52°W
Report Text: SARP 231300Z 05004KT CAVOK 28/15 Q1017
Loading
Personal Weather Stations






























Interactive Weather Map
Tropical Storm Tracking
New forecast layout! Learn more

10-Day Weather Forecast

Advertisements
Track Severe Weather on mobile